Faribault, MN

10:01 AM CST on December 16, 2017 (GMT -0600)
Faribault Municipal

Weather History for KFBL - September, 2012

Change the Weather History Date:

Saturday, September 29, 2012

  Actual Average Record
Temperature  
Mean Temperature 61 °F -  
Max Temperature 80 °F 66 °F 84 °F (1983)
Min Temperature 42 °F 43 °F 25 °F (1967)
Degree Days  
Heating Degree Days 4    
Growing Degree Days 11 (Base 50)    
Moisture  
Dew Point 44 °F    
Average Humidity 62    
Maximum Humidity 93    
Minimum Humidity 29    
Precipitation  
Precipitation 0.00 in - - ()
Sea Level Pressure  
Sea Level Pressure 30.09 in    
Wind  
Wind Speed 2 mph (NW)    
Max Wind Speed 10 mph    
Max Gust Speed -    
Visibility 10 miles    
Events      
Averages and records for this station are not official NWS values.
T = Trace of Precipitation, MM = Missing Value Source: NWS Daily Summary

Daily Weather History Graph

Daily Weather History Graph

Search for Another Location

Airport or City:

Trip Planner

Search our weather history database for the weather conditions in past years. The results will help you decide how hot, cold, wet, or windy it might be!

Date:

Astronomy

Sep. 29, 2012 Rise Set
Actual Time 7:09 AM CDT 6:56 PM CDT
Civil Twilight 6:40 AM CDT 7:25 PM CDT
Nautical Twilight 6:06 AM CDT 7:59 PM CDT
Astronomical Twilight 5:32 AM CDT 8:33 PM CDT
Moon 6:27 PM CDT (9/29) 6:41 AM CDT (9/29)
Length of Visible Light 12h 45m
Length of Day
11h 47m
Full, 100% of the Moon is Illuminated
Sep 29
Full
Sep 29
Full
Oct 8
Last Quarter
Oct 15
New
Oct 21
First Quarter

Hourly Weather History & Observations

Time (CDT) Temp. Windchill Dew Point Humidity Pressure Visibility Wind Dir Wind Speed Gust Speed Precip Events Conditions
12:14 AM 48.2 °F - 42.8 °F 82% 30.12 in 7.0 mi Calm Calm - N/A   Clear
12:34 AM 46.4 °F - 42.8 °F 87% 30.12 in 7.0 mi Calm Calm - N/A   Clear
12:54 AM 46.4 °F - 41.0 °F 81% 30.12 in 7.0 mi Calm Calm - N/A   Clear
1:14 AM 44.6 °F - 42.8 °F 93% 30.12 in 7.0 mi Calm Calm - N/A   Clear
1:34 AM 48.2 °F - 42.8 °F 82% 30.12 in 10.0 mi South 3.5 mph - N/A   Clear
1:54 AM 46.4 °F 45.2 °F 42.8 °F 87% 30.12 in 10.0 mi South 3.5 mph - N/A   Clear
2:14 AM 44.6 °F - 41.0 °F 87% 30.12 in 10.0 mi Calm Calm - N/A   Clear
2:34 AM 42.8 °F - 41.0 °F 93% 30.12 in 7.0 mi Calm Calm - N/A   Clear
2:54 AM 44.6 °F - 39.2 °F 81% 30.11 in 10.0 mi Calm Calm - N/A   Clear
3:14 AM 46.4 °F - 41.0 °F 81% 30.12 in 10.0 mi Calm Calm - N/A   Clear
3:34 AM 44.6 °F - 39.2 °F 81% 30.12 in 10.0 mi Calm Calm - N/A   Clear
3:54 AM 44.6 °F - 41.0 °F 87% 30.12 in 10.0 mi Calm Calm - N/A   Clear
4:14 AM 46.4 °F - 42.8 °F 87% 30.12 in 10.0 mi Calm Calm - N/A   Clear
4:34 AM 46.4 °F - 41.0 °F 81% 30.12 in 10.0 mi Calm Calm - N/A   Clear
4:54 AM 44.6 °F - 39.2 °F 81% 30.12 in 10.0 mi Calm Calm - N/A   Clear
5:14 AM 44.6 °F - 39.2 °F 81% 30.11 in 10.0 mi Calm Calm - N/A   Clear
5:34 AM 42.8 °F - 41.0 °F 93% 30.12 in 10.0 mi Calm Calm - N/A   Clear
5:54 AM 44.6 °F - 39.2 °F 81% 30.12 in 10.0 mi Calm Calm - N/A   Clear
6:14 AM 44.6 °F - 41.0 °F 87% 30.12 in 10.0 mi Calm Calm - N/A   Clear
6:34 AM 42.8 °F - 39.2 °F 87% 30.13 in 10.0 mi Calm Calm - N/A   Clear
6:54 AM 42.8 °F - 39.2 °F 87% 30.13 in 10.0 mi Calm Calm - N/A   Clear
7:14 AM 42.8 °F - 39.2 °F 87% 30.13 in 10.0 mi Calm Calm - N/A   Clear
7:34 AM 42.8 °F - 41.0 °F 93% 30.14 in 10.0 mi Calm Calm - N/A   Clear
7:54 AM 44.6 °F - 41.0 °F 87% 30.14 in 10.0 mi Calm Calm - N/A   Clear
8:14 AM 48.2 °F - 42.8 °F 82% 30.13 in 10.0 mi Calm Calm - N/A   Clear
8:34 AM 51.8 °F - 42.8 °F 71% 30.13 in 10.0 mi Calm Calm - N/A   Clear
8:54 AM 53.6 °F - 42.8 °F 67% 30.14 in 10.0 mi Calm Calm - N/A   Clear
9:14 AM 55.4 °F - 44.6 °F 67% 30.14 in 10.0 mi Calm Calm - N/A   Clear
9:34 AM 60.8 °F - 44.6 °F 55% 30.13 in 10.0 mi SSW 4.6 mph - N/A   Clear
9:54 AM 64.4 °F - 44.6 °F 49% 30.13 in 10.0 mi WSW 4.6 mph - N/A   Clear
10:14 AM 66.2 °F - 44.6 °F 46% 30.13 in 10.0 mi SW 3.5 mph - N/A   Clear
10:34 AM 71.6 °F - 42.8 °F 35% 30.12 in 10.0 mi WNW 5.8 mph - N/A   Clear
10:54 AM 73.4 °F - 42.8 °F 33% 30.12 in 10.0 mi WNW 4.6 mph - N/A   Clear
11:14 AM 75.2 °F - 42.8 °F 31% 30.11 in 10.0 mi WNW 9.2 mph - N/A   Clear
11:34 AM 75.2 °F - 42.8 °F 31% 30.11 in 10.0 mi WNW 8.1 mph - N/A   Clear
11:55 AM 77.0 °F - 42.8 °F 29% 30.11 in 10.0 mi NW 9.2 mph - N/A   Clear
12:14 PM 78.8 °F - 44.6 °F 30% 30.11 in 10.0 mi NW 8.1 mph - N/A   Clear
12:34 PM 77.0 °F - 44.6 °F 32% 30.11 in 10.0 mi NNW 8.1 mph - N/A   Clear
12:54 PM 78.8 °F - 44.6 °F 30% 30.10 in 10.0 mi North 10.4 mph - N/A   Clear
1:14 PM 78.8 °F - 44.6 °F 30% 30.09 in 10.0 mi Calm Calm - N/A   Clear
1:35 PM 78.8 °F - 44.6 °F 30% 30.09 in 10.0 mi Calm Calm - N/A   Clear
1:54 PM 78.8 °F - 44.6 °F 30% 30.08 in 10.0 mi NNW 5.8 mph - N/A   Clear
2:14 PM 80.6 °F - 46.4 °F 30% 30.07 in 10.0 mi North 8.1 mph - N/A   Clear
2:34 PM 80.6 °F - 46.4 °F 30% 30.06 in 10.0 mi NNW 5.8 mph - N/A   Clear
2:54 PM 80.6 °F - 46.4 °F 30% 30.06 in 10.0 mi NW 8.1 mph - N/A   Clear
3:15 PM 80.6 °F - 46.4 °F 30% 30.05 in 10.0 mi NNW 6.9 mph - N/A   Clear
3:34 PM 80.6 °F - 46.4 °F 30% 30.05 in 10.0 mi NNW 8.1 mph - N/A   Clear
3:54 PM 80.6 °F - 46.4 °F 30% 30.04 in 10.0 mi North 6.9 mph - N/A   Clear
4:15 PM 80.6 °F - 46.4 °F 30% 30.04 in 10.0 mi NNW 8.1 mph - N/A   Clear
4:34 PM 80.6 °F - 46.4 °F 30% 30.03 in 10.0 mi NNW 8.1 mph - N/A   Clear
4:54 PM 80.6 °F - 46.4 °F 30% 30.03 in 10.0 mi North 3.5 mph - N/A   Clear
5:14 PM 78.8 °F - 46.4 °F 32% 30.03 in 10.0 mi NNW 4.6 mph - N/A   Clear
5:34 PM 78.8 °F - 46.4 °F 32% 30.02 in 10.0 mi North 5.8 mph - N/A   Clear
5:54 PM 78.8 °F - 46.4 °F 32% 30.02 in 10.0 mi North 3.5 mph - N/A   Clear
6:14 PM 75.2 °F - 46.4 °F 36% 30.02 in 10.0 mi Calm Calm - N/A   Clear
6:34 PM 71.6 °F - 46.4 °F 41% 30.02 in 10.0 mi Calm Calm - N/A   Clear
6:54 PM 66.2 °F - 48.2 °F 52% 30.02 in 10.0 mi Calm Calm - N/A   Clear
7:14 PM 62.6 °F - 48.2 °F 59% 30.02 in 10.0 mi Calm Calm - N/A   Clear
7:34 PM 59.0 °F - 46.4 °F 63% 30.02 in 10.0 mi Calm Calm - N/A   Clear
7:54 PM 57.2 °F - 46.4 °F 67% 30.03 in 10.0 mi Calm Calm - N/A   Clear
8:14 PM 55.4 °F - 46.4 °F 72% 30.03 in 10.0 mi Calm Calm - N/A   Clear
8:34 PM 55.4 °F - 48.2 °F 77% 30.03 in 10.0 mi Calm Calm - N/A   Clear
9:14 PM 51.8 °F - 46.4 °F 82% 30.03 in 10.0 mi Calm Calm - N/A   Clear
9:34 PM 51.8 °F - 46.4 °F 82% 30.04 in 10.0 mi Calm Calm - N/A   Clear
9:55 PM 51.8 °F - 46.4 °F 82% 30.04 in 7.0 mi Calm Calm - N/A   Clear
10:14 PM 50.0 °F - 46.4 °F 87% 30.04 in 10.0 mi Calm Calm - N/A   Clear
10:34 PM 51.8 °F - 46.4 °F 82% 30.04 in 10.0 mi Calm Calm - N/A   Clear
10:54 PM 51.8 °F - 46.4 °F 82% 30.04 in 10.0 mi Calm Calm - N/A   Clear
11:14 PM 48.2 °F - 46.4 °F 93% 30.04 in 10.0 mi Calm Calm - N/A   Clear
11:34 PM 48.2 °F - 46.4 °F 93% 30.04 in 10.0 mi Calm Calm - N/A   Clear
11:54 PM 46.4 °F - 42.8 °F 87% 30.04 in 10.0 mi Calm Calm - N/A   Clear